sensor_id;sensor_type;location;lat;lon;timestamp;temperature;humidity
64951;DHT22;51482;47.014;7.652;2023-12-07T00:01:51;3.10;99.90
64951;DHT22;51482;47.014;7.652;2023-12-07T00:04:16;3.70;99.90
64951;DHT22;51482;47.014;7.652;2023-12-07T00:06:42;2.90;99.90
64951;DHT22;51482;47.014;7.652;2023-12-07T00:09:07;3.50;99.90
64951;DHT22;51482;47.014;7.652;2023-12-07T00:11:33;3.40;99.90
64951;DHT22;51482;47.014;7.652;2023-12-07T00:13:58;3.40;99.90
64951;DHT22;51482;47.014;7.652;2023-12-07T00:16:24;3.10;99.90
64951;DHT22;51482;47.014;7.652;2023-12-07T00:18:49;3.10;99.90
64951;DHT22;51482;47.014;7.652;2023-12-07T00:21:15;2.80;99.90
64951;DHT22;51482;47.014;7.652;2023-12-07T00:23:40;1.90;99.90
64951;DHT22;51482;47.014;7.652;2023-12-07T00:26:06;2.80;99.90
64951;DHT22;51482;47.014;7.652;2023-12-07T00:28:32;3.10;99.90
64951;DHT22;51482;47.014;7.652;2023-12-07T00:30:57;2.90;99.90
64951;DHT22;51482;47.014;7.652;2023-12-07T00:33:23;2.80;99.90
64951;DHT22;51482;47.014;7.652;2023-12-07T00:35:49;3.40;99.90
64951;DHT22;51482;47.014;7.652;2023-12-07T00:38:14;2.80;99.90
64951;DHT22;51482;47.014;7.652;2023-12-07T00:40:40;3.20;99.90
64951;DHT22;51482;47.014;7.652;2023-12-07T00:43:08;2.10;99.90
64951;DHT22;51482;47.014;7.652;2023-12-07T00:45:34;3.10;99.90
64951;DHT22;51482;47.014;7.652;2023-12-07T00:47:59;2.70;99.90
64951;DHT22;51482;47.014;7.652;2023-12-07T00:50:25;2.60;99.90
64951;DHT22;51482;47.014;7.652;2023-12-07T00:52:51;3.20;99.90
64951;DHT22;51482;47.014;7.652;2023-12-07T00:55:16;3.10;99.90
64951;DHT22;51482;47.014;7.652;2023-12-07T00:57:42;2.10;99.90
64951;DHT22;51482;47.014;7.652;2023-12-07T01:00:08;2.60;99.90
64951;DHT22;51482;47.014;7.652;2023-12-07T01:02:35;2.60;99.90
64951;DHT22;51482;47.014;7.652;2023-12-07T01:05:00;2.70;99.90
64951;DHT22;51482;47.014;7.652;2023-12-07T01:07:26;2.40;99.90
64951;DHT22;51482;47.014;7.652;2023-12-07T01:09:51;2.90;99.90
64951;DHT22;51482;47.014;7.652;2023-12-07T01:12:17;2.40;99.90
64951;DHT22;51482;47.014;7.652;2023-12-07T01:14:42;2.40;99.90
64951;DHT22;51482;47.014;7.652;2023-12-07T01:17:08;2.50;99.90
64951;DHT22;51482;47.014;7.652;2023-12-07T01:19:33;2.80;99.90
64951;DHT22;51482;47.014;7.652;2023-12-07T01:21:59;1.80;99.90
64951;DHT22;51482;47.014;7.652;2023-12-07T01:24:25;2.20;99.90
64951;DHT22;51482;47.014;7.652;2023-12-07T01:26:50;1.70;99.90
64951;DHT22;51482;47.014;7.652;2023-12-07T01:29:16;2.30;99.90
64951;DHT22;51482;47.014;7.652;2023-12-07T01:31:43;2.30;99.90
64951;DHT22;51482;47.014;7.652;2023-12-07T01:34:08;2.70;99.90
64951;DHT22;51482;47.014;7.652;2023-12-07T01:36:34;2.50;99.90
64951;DHT22;51482;47.014;7.652;2023-12-07T01:39:00;2.60;99.90
64951;DHT22;51482;47.014;7.652;2023-12-07T01:41:25;1.50;99.90
64951;DHT22;51482;47.014;7.652;2023-12-07T01:43:51;2.50;99.90
64951;DHT22;51482;47.014;7.652;2023-12-07T01:46:16;2.00;99.90
64951;DHT22;51482;47.014;7.652;2023-12-07T01:48:43;2.20;99.90
64951;DHT22;51482;47.014;7.652;2023-12-07T01:51:10;2.50;99.90
64951;DHT22;51482;47.014;7.652;2023-12-07T01:53:38;2.50;99.90
64951;DHT22;51482;47.014;7.652;2023-12-07T01:56:04;2.10;99.90
64951;DHT22;51482;47.014;7.652;2023-12-07T01:58:32;2.00;99.90
64951;DHT22;51482;47.014;7.652;2023-12-07T02:00:57;2.00;99.90
64951;DHT22;51482;47.014;7.652;2023-12-07T02:03:23;2.40;99.90
64951;DHT22;51482;47.014;7.652;2023-12-07T02:05:49;1.80;99.90
64951;DHT22;51482;47.014;7.652;2023-12-07T02:08:16;1.30;99.90
64951;DHT22;51482;47.014;7.652;2023-12-07T02:10:41;2.30;99.90
64951;DHT22;51482;47.014;7.652;2023-12-07T02:13:07;2.00;99.90
64951;DHT22;51482;47.014;7.652;2023-12-07T02:15:34;1.40;99.90
64951;DHT22;51482;47.014;7.652;2023-12-07T02:18:10;1.60;99.90
64951;DHT22;51482;47.014;7.652;2023-12-07T02:20:44;2.20;99.90
64951;DHT22;51482;47.014;7.652;2023-12-07T02:23:16;2.10;99.90
64951;DHT22;51482;47.014;7.652;2023-12-07T02:25:52;1.90;99.90
64951;DHT22;51482;47.014;7.652;2023-12-07T02:28:18;2.60;99.90
64951;DHT22;51482;47.014;7.652;2023-12-07T02:30:44;2.50;99.90
64951;DHT22;51482;47.014;7.652;2023-12-07T02:33:10;2.60;99.90
64951;DHT22;51482;47.014;7.652;2023-12-07T02:35:38;2.50;99.90
64951;DHT22;51482;47.014;7.652;2023-12-07T02:38:06;2.10;99.90
64951;DHT22;51482;47.014;7.652;2023-12-07T02:40:32;1.80;99.90
64951;DHT22;51482;47.014;7.652;2023-12-07T02:42:59;2.00;99.90
64951;DHT22;51482;47.014;7.652;2023-12-07T02:45:25;2.30;99.90
64951;DHT22;51482;47.014;7.652;2023-12-07T02:47:54;2.30;99.90
64951;DHT22;51482;47.014;7.652;2023-12-07T02:50:20;2.50;99.90
64951;DHT22;51482;47.014;7.652;2023-12-07T02:52:46;1.60;99.90
64951;DHT22;51482;47.014;7.652;2023-12-07T02:55:12;2.10;99.90
64951;DHT22;51482;47.014;7.652;2023-12-07T02:57:37;2.40;99.90
64951;DHT22;51482;47.014;7.652;2023-12-07T03:00:04;2.20;99.90
64951;DHT22;51482;47.014;7.652;2023-12-07T03:02:37;1.90;99.90
64951;DHT22;51482;47.014;7.652;2023-12-07T03:05:03;2.30;99.90
64951;DHT22;51482;47.014;7.652;2023-12-07T03:07:29;2.10;99.90
64951;DHT22;51482;47.014;7.652;2023-12-07T03:09:55;1.70;99.90
64951;DHT22;51482;47.014;7.652;2023-12-07T03:12:20;2.80;99.90
64951;DHT22;51482;47.014;7.652;2023-12-07T03:14:45;1.80;99.90
64951;DHT22;51482;47.014;7.652;2023-12-07T03:17:11;1.90;99.90
64951;DHT22;51482;47.014;7.652;2023-12-07T03:19:40;2.20;99.90
64951;DHT22;51482;47.014;7.652;2023-12-07T03:22:06;1.50;99.90
64951;DHT22;51482;47.014;7.652;2023-12-07T03:24:33;2.50;99.90
64951;DHT22;51482;47.014;7.652;2023-12-07T03:26:59;2.40;99.90
64951;DHT22;51482;47.014;7.652;2023-12-07T03:29:24;1.80;99.90
64951;DHT22;51482;47.014;7.652;2023-12-07T03:31:50;2.10;99.90
64951;DHT22;51482;47.014;7.652;2023-12-07T03:34:15;1.80;99.90
64951;DHT22;51482;47.014;7.652;2023-12-07T03:36:46;2.30;99.90
64951;DHT22;51482;47.014;7.652;2023-12-07T03:39:13;1.90;99.90
64951;DHT22;51482;47.014;7.652;2023-12-07T03:41:38;2.50;99.90
64951;DHT22;51482;47.014;7.652;2023-12-07T03:44:04;1.80;99.90
64951;DHT22;51482;47.014;7.652;2023-12-07T03:46:29;2.10;99.90
64951;DHT22;51482;47.014;7.652;2023-12-07T03:48:55;2.10;99.90
64951;DHT22;51482;47.014;7.652;2023-12-07T03:51:20;1.90;99.90
64951;DHT22;51482;47.014;7.652;2023-12-07T03:53:46;1.20;99.90
64951;DHT22;51482;47.014;7.652;2023-12-07T03:56:25;2.10;99.90
64951;DHT22;51482;47.014;7.652;2023-12-07T03:58:51;1.70;99.90
64951;DHT22;51482;47.014;7.652;2023-12-07T04:01:17;1.80;99.90
64951;DHT22;51482;47.014;7.652;2023-12-07T04:03:42;1.60;99.90
64951;DHT22;51482;47.014;7.652;2023-12-07T04:06:08;1.70;99.90
64951;DHT22;51482;47.014;7.652;2023-12-07T04:08:34;1.60;99.90
64951;DHT22;51482;47.014;7.652;2023-12-07T04:11:00;2.20;99.90
64951;DHT22;51482;47.014;7.652;2023-12-07T04:13:25;1.70;99.90
64951;DHT22;51482;47.014;7.652;2023-12-07T04:15:51;1.90;99.90
64951;DHT22;51482;47.014;7.652;2023-12-07T04:18:17;1.10;99.90
64951;DHT22;51482;47.014;7.652;2023-12-07T04:20:43;1.70;99.90
64951;DHT22;51482;47.014;7.652;2023-12-07T04:23:08;1.20;99.90
64951;DHT22;51482;47.014;7.652;2023-12-07T04:25:34;1.90;99.90
64951;DHT22;51482;47.014;7.652;2023-12-07T04:27:59;1.60;99.90
64951;DHT22;51482;47.014;7.652;2023-12-07T04:30:25;2.20;99.90
64951;DHT22;51482;47.014;7.652;2023-12-07T04:32:50;1.30;99.90
64951;DHT22;51482;47.014;7.652;2023-12-07T04:35:16;1.90;99.90
64951;DHT22;51482;47.014;7.652;2023-12-07T04:37:41;1.40;99.90
64951;DHT22;51482;47.014;7.652;2023-12-07T04:40:08;1.10;99.90
64951;DHT22;51482;47.014;7.652;2023-12-07T04:42:33;1.60;99.90
64951;DHT22;51482;47.014;7.652;2023-12-07T04:44:59;1.50;99.90
64951;DHT22;51482;47.014;7.652;2023-12-07T04:47:24;1.60;99.90
64951;DHT22;51482;47.014;7.652;2023-12-07T04:49:50;1.40;99.90
64951;DHT22;51482;47.014;7.652;2023-12-07T04:52:15;1.60;99.90
64951;DHT22;51482;47.014;7.652;2023-12-07T04:54:41;2.10;99.90
64951;DHT22;51482;47.014;7.652;2023-12-07T04:57:07;1.40;99.90
64951;DHT22;51482;47.014;7.652;2023-12-07T04:59:32;0.90;99.90
64951;DHT22;51482;47.014;7.652;2023-12-07T05:01:58;1.40;99.90
64951;DHT22;51482;47.014;7.652;2023-12-07T05:04:23;1.30;99.90
64951;DHT22;51482;47.014;7.652;2023-12-07T05:06:49;1.00;99.90
64951;DHT22;51482;47.014;7.652;2023-12-07T05:09:14;1.60;99.90
64951;DHT22;51482;47.014;7.652;2023-12-07T05:11:40;2.00;99.90
64951;DHT22;51482;47.014;7.652;2023-12-07T05:14:06;1.90;99.90
64951;DHT22;51482;47.014;7.652;2023-12-07T05:16:32;1.90;99.90
64951;DHT22;51482;47.014;7.652;2023-12-07T05:18:58;1.00;99.90
64951;DHT22;51482;47.014;7.652;2023-12-07T05:21:23;1.20;99.90
64951;DHT22;51482;47.014;7.652;2023-12-07T05:23:49;1.70;99.90
64951;DHT22;51482;47.014;7.652;2023-12-07T05:26:15;1.30;99.90
64951;DHT22;51482;47.014;7.652;2023-12-07T05:28:40;1.30;99.90
64951;DHT22;51482;47.014;7.652;2023-12-07T05:31:06;1.20;99.90
64951;DHT22;51482;47.014;7.652;2023-12-07T05:33:32;1.20;99.90
64951;DHT22;51482;47.014;7.652;2023-12-07T05:35:57;1.10;99.90
64951;DHT22;51482;47.014;7.652;2023-12-07T05:38:24;0.80;99.90
64951;DHT22;51482;47.014;7.652;2023-12-07T05:40:49;0.70;99.90
64951;DHT22;51482;47.014;7.652;2023-12-07T05:43:15;1.40;99.90
64951;DHT22;51482;47.014;7.652;2023-12-07T05:45:40;0.90;99.90
64951;DHT22;51482;47.014;7.652;2023-12-07T05:48:06;1.10;99.90
64951;DHT22;51482;47.014;7.652;2023-12-07T05:50:31;1.00;99.90
64951;DHT22;51482;47.014;7.652;2023-12-07T05:52:57;0.70;99.90
64951;DHT22;51482;47.014;7.652;2023-12-07T05:55:22;0.70;99.90
64951;DHT22;51482;47.014;7.652;2023-12-07T05:57:48;1.10;99.90
64951;DHT22;51482;47.014;7.652;2023-12-07T06:00:14;0.90;99.90
64951;DHT22;51482;47.014;7.652;2023-12-07T06:02:41;0.50;99.90
64951;DHT22;51482;47.014;7.652;2023-12-07T06:05:07;1.20;99.90
64951;DHT22;51482;47.014;7.652;2023-12-07T06:07:33;0.70;99.90
64951;DHT22;51482;47.014;7.652;2023-12-07T06:09:59;0.70;99.90
64951;DHT22;51482;47.014;7.652;2023-12-07T06:12:24;0.80;99.90
64951;DHT22;51482;47.014;7.652;2023-12-07T06:14:50;0.90;99.90
64951;DHT22;51482;47.014;7.652;2023-12-07T06:17:16;1.10;99.90
64951;DHT22;51482;47.014;7.652;2023-12-07T06:19:41;0.00;99.90
64951;DHT22;51482;47.014;7.652;2023-12-07T06:22:08;0.90;99.90
64951;DHT22;51482;47.014;7.652;2023-12-07T06:24:33;0.50;99.90
64951;DHT22;51482;47.014;7.652;2023-12-07T06:26:59;0.50;99.90
64951;DHT22;51482;47.014;7.652;2023-12-07T06:29:27;0.30;99.90
64951;DHT22;51482;47.014;7.652;2023-12-07T06:31:52;0.20;99.90
64951;DHT22;51482;47.014;7.652;2023-12-07T06:34:18;0.60;99.90
64951;DHT22;51482;47.014;7.652;2023-12-07T06:36:45;0.30;99.90
64951;DHT22;51482;47.014;7.652;2023-12-07T06:39:10;0.10;99.90
64951;DHT22;51482;47.014;7.652;2023-12-07T06:41:36;0.20;99.90
64951;DHT22;51482;47.014;7.652;2023-12-07T06:44:01;-0.30;99.90
64951;DHT22;51482;47.014;7.652;2023-12-07T06:46:27;0.40;99.90
64951;DHT22;51482;47.014;7.652;2023-12-07T06:48:53;0.60;99.90
64951;DHT22;51482;47.014;7.652;2023-12-07T06:51:18;0.90;99.90
64951;DHT22;51482;47.014;7.652;2023-12-07T06:53:44;0.60;99.90
64951;DHT22;51482;47.014;7.652;2023-12-07T06:56:09;1.10;99.90
64951;DHT22;51482;47.014;7.652;2023-12-07T06:58:35;0.90;99.90
64951;DHT22;51482;47.014;7.652;2023-12-07T07:01:00;-0.10;99.90
64951;DHT22;51482;47.014;7.652;2023-12-07T07:03:26;0.40;99.90
64951;DHT22;51482;47.014;7.652;2023-12-07T07:05:54;0.30;99.90
64951;DHT22;51482;47.014;7.652;2023-12-07T07:08:20;-0.10;99.90
64951;DHT22;51482;47.014;7.652;2023-12-07T07:10:45;-0.30;99.90
64951;DHT22;51482;47.014;7.652;2023-12-07T07:13:12;0.60;99.90
64951;DHT22;51482;47.014;7.652;2023-12-07T07:15:42;0.40;99.90
64951;DHT22;51482;47.014;7.652;2023-12-07T07:18:09;0.80;99.90
64951;DHT22;51482;47.014;7.652;2023-12-07T07:20:34;0.20;99.90
64951;DHT22;51482;47.014;7.652;2023-12-07T07:23:00;0.60;99.90
64951;DHT22;51482;47.014;7.652;2023-12-07T07:25:26;-0.40;99.90
64951;DHT22;51482;47.014;7.652;2023-12-07T07:27:51;0.50;99.90
64951;DHT22;51482;47.014;7.652;2023-12-07T07:30:18;0.80;99.90
64951;DHT22;51482;47.014;7.652;2023-12-07T07:32:43;0.60;99.90
64951;DHT22;51482;47.014;7.652;2023-12-07T07:35:09;0.90;99.90
64951;DHT22;51482;47.014;7.652;2023-12-07T07:37:37;0.40;99.90
64951;DHT22;51482;47.014;7.652;2023-12-07T07:40:03;0.50;99.90
64951;DHT22;51482;47.014;7.652;2023-12-07T07:42:35;0.50;99.90
64951;DHT22;51482;47.014;7.652;2023-12-07T07:45:00;0.90;99.90
64951;DHT22;51482;47.014;7.652;2023-12-07T07:47:26;1.00;99.90
64951;DHT22;51482;47.014;7.652;2023-12-07T07:49:51;0.70;99.90
64951;DHT22;51482;47.014;7.652;2023-12-07T07:52:17;0.60;99.90
64951;DHT22;51482;47.014;7.652;2023-12-07T07:54:42;0.60;99.90
64951;DHT22;51482;47.014;7.652;2023-12-07T07:57:08;0.40;99.90
64951;DHT22;51482;47.014;7.652;2023-12-07T07:59:34;0.80;99.90
64951;DHT22;51482;47.014;7.652;2023-12-07T08:01:59;0.00;99.90
64951;DHT22;51482;47.014;7.652;2023-12-07T08:04:25;0.20;99.90
64951;DHT22;51482;47.014;7.652;2023-12-07T08:06:50;-0.30;99.90
64951;DHT22;51482;47.014;7.652;2023-12-07T08:09:16;0.70;99.90
64951;DHT22;51482;47.014;7.652;2023-12-07T08:11:41;0.60;99.90
64951;DHT22;51482;47.014;7.652;2023-12-07T08:14:08;0.40;99.90
64951;DHT22;51482;47.014;7.652;2023-12-07T08:16:33;0.40;99.90
64951;DHT22;51482;47.014;7.652;2023-12-07T08:18:59;0.60;99.90
64951;DHT22;51482;47.014;7.652;2023-12-07T08:21:24;0.80;99.90
64951;DHT22;51482;47.014;7.652;2023-12-07T08:23:51;0.80;99.90
64951;DHT22;51482;47.014;7.652;2023-12-07T08:26:17;0.80;99.90
64951;DHT22;51482;47.014;7.652;2023-12-07T08:28:43;1.50;99.90
64951;DHT22;51482;47.014;7.652;2023-12-07T08:31:10;1.40;99.90
64951;DHT22;51482;47.014;7.652;2023-12-07T08:33:35;0.40;99.90
64951;DHT22;51482;47.014;7.652;2023-12-07T08:36:02;1.00;99.90
64951;DHT22;51482;47.014;7.652;2023-12-07T08:38:27;0.90;99.90
64951;DHT22;51482;47.014;7.652;2023-12-07T08:40:53;1.70;99.90
64951;DHT22;51482;47.014;7.652;2023-12-07T08:43:21;1.70;99.90
64951;DHT22;51482;47.014;7.652;2023-12-07T08:45:49;1.60;99.90
64951;DHT22;51482;47.014;7.652;2023-12-07T08:48:14;1.30;99.90
64951;DHT22;51482;47.014;7.652;2023-12-07T08:50:40;2.00;99.90
64951;DHT22;51482;47.014;7.652;2023-12-07T08:53:06;2.40;99.90
64951;DHT22;51482;47.014;7.652;2023-12-07T08:55:32;3.20;99.90
64951;DHT22;51482;47.014;7.652;2023-12-07T08:57:57;4.20;99.90
64951;DHT22;51482;47.014;7.652;2023-12-07T09:00:25;4.20;99.90
64951;DHT22;51482;47.014;7.652;2023-12-07T09:02:51;4.10;99.90
64951;DHT22;51482;47.014;7.652;2023-12-07T09:05:17;4.20;99.90
64951;DHT22;51482;47.014;7.652;2023-12-07T09:07:42;3.40;99.90
64951;DHT22;51482;47.014;7.652;2023-12-07T09:10:08;3.50;99.90
64951;DHT22;51482;47.014;7.652;2023-12-07T09:12:34;3.40;99.90
64951;DHT22;51482;47.014;7.652;2023-12-07T09:15:02;4.00;99.90
64951;DHT22;51482;47.014;7.652;2023-12-07T09:17:27;3.10;99.90
64951;DHT22;51482;47.014;7.652;2023-12-07T09:19:53;3.50;99.90
64951;DHT22;51482;47.014;7.652;2023-12-07T09:22:19;4.30;99.90
64951;DHT22;51482;47.014;7.652;2023-12-07T09:24:45;3.90;99.90
64951;DHT22;51482;47.014;7.652;2023-12-07T09:27:13;4.30;99.90
64951;DHT22;51482;47.014;7.652;2023-12-07T09:29:38;4.50;99.90
64951;DHT22;51482;47.014;7.652;2023-12-07T09:32:05;5.10;99.90
64951;DHT22;51482;47.014;7.652;2023-12-07T09:34:31;4.80;99.90
64951;DHT22;51482;47.014;7.652;2023-12-07T09:37:06;4.90;99.90
64951;DHT22;51482;47.014;7.652;2023-12-07T09:39:32;5.40;99.90
64951;DHT22;51482;47.014;7.652;2023-12-07T09:41:58;5.30;99.90
64951;DHT22;51482;47.014;7.652;2023-12-07T09:44:23;5.70;99.90
64951;DHT22;51482;47.014;7.652;2023-12-07T09:46:49;6.10;99.90
64951;DHT22;51482;47.014;7.652;2023-12-07T09:49:15;6.10;99.90
64951;DHT22;51482;47.014;7.652;2023-12-07T09:51:42;6.20;99.90
64951;DHT22;51482;47.014;7.652;2023-12-07T09:54:08;6.30;99.90
64951;DHT22;51482;47.014;7.652;2023-12-07T09:56:34;6.80;99.90
64951;DHT22;51482;47.014;7.652;2023-12-07T09:59:00;5.80;99.90
64951;DHT22;51482;47.014;7.652;2023-12-07T10:01:29;6.10;99.90
64951;DHT22;51482;47.014;7.652;2023-12-07T10:04:21;6.70;99.90
64951;DHT22;51482;47.014;7.652;2023-12-07T10:06:51;6.60;99.90
64951;DHT22;51482;47.014;7.652;2023-12-07T10:09:19;7.10;99.90
64951;DHT22;51482;47.014;7.652;2023-12-07T10:11:46;7.50;99.90
64951;DHT22;51482;47.014;7.652;2023-12-07T10:14:12;7.00;99.90
64951;DHT22;51482;47.014;7.652;2023-12-07T10:16:37;6.70;99.90
64951;DHT22;51482;47.014;7.652;2023-12-07T10:19:13;8.20;99.90
64951;DHT22;51482;47.014;7.652;2023-12-07T10:21:40;7.30;99.90
64951;DHT22;51482;47.014;7.652;2023-12-07T10:24:06;7.80;99.90
64951;DHT22;51482;47.014;7.652;2023-12-07T10:26:31;7.60;99.90
64951;DHT22;51482;47.014;7.652;2023-12-07T10:28:57;8.20;99.90
64951;DHT22;51482;47.014;7.652;2023-12-07T10:31:25;7.30;99.90
64951;DHT22;51482;47.014;7.652;2023-12-07T10:33:52;7.80;99.90
64951;DHT22;51482;47.014;7.652;2023-12-07T10:36:17;7.90;99.90
64951;DHT22;51482;47.014;7.652;2023-12-07T10:38:43;8.10;99.90
64951;DHT22;51482;47.014;7.652;2023-12-07T10:41:12;7.60;99.90
64951;DHT22;51482;47.014;7.652;2023-12-07T10:43:42;7.90;99.90
64951;DHT22;51482;47.014;7.652;2023-12-07T10:46:09;7.60;99.90
64951;DHT22;51482;47.014;7.652;2023-12-07T10:48:35;8.20;99.90
64951;DHT22;51482;47.014;7.652;2023-12-07T10:51:06;7.90;99.90
64951;DHT22;51482;47.014;7.652;2023-12-07T10:53:38;6.60;99.90
64951;DHT22;51482;47.014;7.652;2023-12-07T10:56:10;7.20;99.90
64951;DHT22;51482;47.014;7.652;2023-12-07T10:58:37;6.90;99.90
64951;DHT22;51482;47.014;7.652;2023-12-07T11:01:04;6.30;99.90
64951;DHT22;51482;47.014;7.652;2023-12-07T11:03:32;6.00;99.90
64951;DHT22;51482;47.014;7.652;2023-12-07T11:05:58;5.60;99.90
64951;DHT22;51482;47.014;7.652;2023-12-07T11:14:02;5.50;99.90
64951;DHT22;51482;47.014;7.652;2023-12-07T11:16:41;5.00;99.90
64951;DHT22;51482;47.014;7.652;2023-12-07T11:21:58;5.20;99.90
64951;DHT22;51482;47.014;7.652;2023-12-07T11:24:24;5.80;99.90
64951;DHT22;51482;47.014;7.652;2023-12-07T11:26:53;5.70;99.90
64951;DHT22;51482;47.014;7.652;2023-12-07T11:29:20;5.90;99.90
64951;DHT22;51482;47.014;7.652;2023-12-07T11:31:47;5.60;99.90
64951;DHT22;51482;47.014;7.652;2023-12-07T11:34:13;5.00;99.90
64951;DHT22;51482;47.014;7.652;2023-12-07T11:36:39;5.10;99.90
64951;DHT22;51482;47.014;7.652;2023-12-07T11:41:53;5.60;99.90
64951;DHT22;51482;47.014;7.652;2023-12-07T11:44:19;5.30;99.90
64951;DHT22;51482;47.014;7.652;2023-12-07T11:46:45;5.80;99.90
64951;DHT22;51482;47.014;7.652;2023-12-07T11:49:11;5.90;99.90
64951;DHT22;51482;47.014;7.652;2023-12-07T11:51:37;6.00;99.90
64951;DHT22;51482;47.014;7.652;2023-12-07T11:54:04;5.30;99.90
64951;DHT22;51482;47.014;7.652;2023-12-07T11:56:30;5.40;99.90
64951;DHT22;51482;47.014;7.652;2023-12-07T11:58:56;5.10;99.90
64951;DHT22;51482;47.014;7.652;2023-12-07T12:01:24;5.70;99.90
64951;DHT22;51482;47.014;7.652;2023-12-07T12:03:50;5.60;99.90
64951;DHT22;51482;47.014;7.652;2023-12-07T12:06:15;5.50;99.90
64951;DHT22;51482;47.014;7.652;2023-12-07T12:08:41;4.90;99.90
64951;DHT22;51482;47.014;7.652;2023-12-07T12:11:08;5.40;99.90
64951;DHT22;51482;47.014;7.652;2023-12-07T12:13:35;4.80;99.90
64951;DHT22;51482;47.014;7.652;2023-12-07T12:16:01;4.70;99.90
64951;DHT22;51482;47.014;7.652;2023-12-07T12:18:27;5.20;99.90
64951;DHT22;51482;47.014;7.652;2023-12-07T12:20:53;5.00;99.90
64951;DHT22;51482;47.014;7.652;2023-12-07T12:23:19;4.90;99.90
64951;DHT22;51482;47.014;7.652;2023-12-07T12:25:45;4.80;99.90
64951;DHT22;51482;47.014;7.652;2023-12-07T12:28:15;4.70;99.90
64951;DHT22;51482;47.014;7.652;2023-12-07T12:30:41;3.60;99.90
64951;DHT22;51482;47.014;7.652;2023-12-07T12:33:07;4.70;99.90
64951;DHT22;51482;47.014;7.652;2023-12-07T12:35:33;4.80;99.90
64951;DHT22;51482;47.014;7.652;2023-12-07T12:37:58;4.70;99.90
64951;DHT22;51482;47.014;7.652;2023-12-07T12:40:27;5.20;99.90
64951;DHT22;51482;47.014;7.652;2023-12-07T12:42:55;4.20;99.90
64951;DHT22;51482;47.014;7.652;2023-12-07T12:45:20;4.20;99.90
64951;DHT22;51482;47.014;7.652;2023-12-07T12:47:47;3.70;99.90
64951;DHT22;51482;47.014;7.652;2023-12-07T12:52:59;4.70;99.90
64951;DHT22;51482;47.014;7.652;2023-12-07T12:55:28;4.70;99.90
64951;DHT22;51482;47.014;7.652;2023-12-07T12:57:55;4.50;99.90
64951;DHT22;51482;47.014;7.652;2023-12-07T13:00:21;4.60;99.90
64951;DHT22;51482;47.014;7.652;2023-12-07T13:02:47;4.50;99.90
64951;DHT22;51482;47.014;7.652;2023-12-07T13:05:12;4.10;99.90
64951;DHT22;51482;47.014;7.652;2023-12-07T13:07:38;3.80;99.90
64951;DHT22;51482;47.014;7.652;2023-12-07T13:10:04;3.70;99.90
64951;DHT22;51482;47.014;7.652;2023-12-07T13:12:29;3.80;99.90
64951;DHT22;51482;47.014;7.652;2023-12-07T13:14:59;3.80;99.90
64951;DHT22;51482;47.014;7.652;2023-12-07T13:17:25;3.40;99.90
64951;DHT22;51482;47.014;7.652;2023-12-07T13:19:51;4.20;99.90
64951;DHT22;51482;47.014;7.652;2023-12-07T13:22:17;3.60;99.90
64951;DHT22;51482;47.014;7.652;2023-12-07T13:24:43;4.10;99.90
64951;DHT22;51482;47.014;7.652;2023-12-07T13:27:08;4.10;99.90
64951;DHT22;51482;47.014;7.652;2023-12-07T13:29:34;3.70;99.90
64951;DHT22;51482;47.014;7.652;2023-12-07T13:31:59;3.30;99.90
64951;DHT22;51482;47.014;7.652;2023-12-07T13:34:25;3.40;99.90
64951;DHT22;51482;47.014;7.652;2023-12-07T13:36:51;3.90;99.90
64951;DHT22;51482;47.014;7.652;2023-12-07T13:39:17;4.20;99.90
64951;DHT22;51482;47.014;7.652;2023-12-07T13:41:46;3.80;99.90
64951;DHT22;51482;47.014;7.652;2023-12-07T13:44:15;3.50;99.90
64951;DHT22;51482;47.014;7.652;2023-12-07T13:46:42;3.70;99.90
64951;DHT22;51482;47.014;7.652;2023-12-07T13:49:09;4.10;99.90
64951;DHT22;51482;47.014;7.652;2023-12-07T13:51:37;3.50;99.90
64951;DHT22;51482;47.014;7.652;2023-12-07T13:54:03;3.80;99.90
64951;DHT22;51482;47.014;7.652;2023-12-07T13:56:28;2.80;99.90
64951;DHT22;51482;47.014;7.652;2023-12-07T13:58:54;4.20;99.90
64951;DHT22;51482;47.014;7.652;2023-12-07T14:01:19;4.10;99.90
64951;DHT22;51482;47.014;7.652;2023-12-07T14:03:45;3.70;99.90
64951;DHT22;51482;47.014;7.652;2023-12-07T14:06:11;4.10;99.90
64951;DHT22;51482;47.014;7.652;2023-12-07T14:08:38;3.70;99.90
64951;DHT22;51482;47.014;7.652;2023-12-07T14:11:03;3.50;99.90
64951;DHT22;51482;47.014;7.652;2023-12-07T14:13:29;3.60;99.90
64951;DHT22;51482;47.014;7.652;2023-12-07T14:15:55;4.00;99.90
64951;DHT22;51482;47.014;7.652;2023-12-07T14:18:20;4.10;99.90
64951;DHT22;51482;47.014;7.652;2023-12-07T14:20:46;3.90;99.90
64951;DHT22;51482;47.014;7.652;2023-12-07T14:23:11;3.40;99.90
64951;DHT22;51482;47.014;7.652;2023-12-07T14:25:37;3.90;99.90
64951;DHT22;51482;47.014;7.652;2023-12-07T14:28:05;4.20;99.90
64951;DHT22;51482;47.014;7.652;2023-12-07T14:30:31;3.60;99.90
64951;DHT22;51482;47.014;7.652;2023-12-07T14:32:56;3.70;99.90
64951;DHT22;51482;47.014;7.652;2023-12-07T14:35:22;3.40;99.90
64951;DHT22;51482;47.014;7.652;2023-12-07T14:37:47;3.60;99.90
64951;DHT22;51482;47.014;7.652;2023-12-07T14:40:15;3.80;99.90
64951;DHT22;51482;47.014;7.652;2023-12-07T14:42:44;2.70;99.90
64951;DHT22;51482;47.014;7.652;2023-12-07T14:45:10;4.10;99.90
64951;DHT22;51482;47.014;7.652;2023-12-07T14:47:36;4.20;99.90
64951;DHT22;51482;47.014;7.652;2023-12-07T14:50:03;4.00;99.90
64951;DHT22;51482;47.014;7.652;2023-12-07T14:52:29;3.60;99.90
64951;DHT22;51482;47.014;7.652;2023-12-07T14:54:54;4.10;99.90
64951;DHT22;51482;47.014;7.652;2023-12-07T14:57:20;4.00;99.90
64951;DHT22;51482;47.014;7.652;2023-12-07T14:59:45;4.00;99.90
64951;DHT22;51482;47.014;7.652;2023-12-07T15:02:13;3.60;99.90
64951;DHT22;51482;47.014;7.652;2023-12-07T15:04:39;3.50;99.90
64951;DHT22;51482;47.014;7.652;2023-12-07T15:07:04;4.00;99.90
64951;DHT22;51482;47.014;7.652;2023-12-07T15:09:31;3.30;99.90
64951;DHT22;51482;47.014;7.652;2023-12-07T15:11:57;3.50;99.90
64951;DHT22;51482;47.014;7.652;2023-12-07T15:14:22;3.50;99.90
64951;DHT22;51482;47.014;7.652;2023-12-07T15:16:48;3.30;99.90
64951;DHT22;51482;47.014;7.652;2023-12-07T15:19:14;3.60;99.90
64951;DHT22;51482;47.014;7.652;2023-12-07T15:21:40;3.30;99.90
64951;DHT22;51482;47.014;7.652;2023-12-07T15:24:05;2.70;99.90
64951;DHT22;51482;47.014;7.652;2023-12-07T15:26:31;3.30;99.90
64951;DHT22;51482;47.014;7.652;2023-12-07T15:28:57;3.40;99.90
64951;DHT22;51482;47.014;7.652;2023-12-07T15:31:22;2.70;99.90
64951;DHT22;51482;47.014;7.652;2023-12-07T15:33:48;3.60;99.90
64951;DHT22;51482;47.014;7.652;2023-12-07T15:36:13;3.70;99.90
64951;DHT22;51482;47.014;7.652;2023-12-07T15:38:39;3.40;99.90
64951;DHT22;51482;47.014;7.652;2023-12-07T15:41:06;3.60;99.90
64951;DHT22;51482;47.014;7.652;2023-12-07T15:43:32;3.20;99.90
64951;DHT22;51482;47.014;7.652;2023-12-07T15:45:58;2.70;99.90
64951;DHT22;51482;47.014;7.652;2023-12-07T15:48:24;2.80;99.90
64951;DHT22;51482;47.014;7.652;2023-12-07T15:50:50;3.30;99.90
64951;DHT22;51482;47.014;7.652;2023-12-07T15:53:16;3.50;99.90